CSA665 EGPH-LKPR
Flight info
| Callsign | CSA665 |
|---|---|
| Flight time | 1h 57m |
| Altitude | 35000 |
| Route | TLA Y96 OTBUN/N0425F350 DCT ERKIT N110 DOLAS L603 LAMSO DCT PETIK DCT DENOL DCT NOMKA L620 PIKIB T620 LALUK DCT GOLOP |
| Aircraft | B735/M-SDFHIW/S |
Departure
| Time | 2026-04-26 14:29 |
|---|---|
| Airport | Edinburgh Airport (EGPH) |
Arrival
| Time | 2026-04-26 16:26 |
|---|---|
| Airport | Václav Havel Airport Prague (LKPR) |
| Time | Latitude | Longitude | Altitude | Speed | Heading |
|---|---|---|---|---|---|
| 2026-04-26 14:04 | 55.94961 | -3.36282 | 116 ft | 0 kts | 150° |
| 2026-04-26 14:19 | 55.94980 | -3.36301 | 113 ft | 4 kts | 150° |
| 2026-04-26 14:19 | 55.95003 | -3.36325 | 115 ft | 4 kts | 150° |
| 2026-04-26 14:19 | 55.95026 | -3.36349 | 112 ft | 4 kts | 150° |
| 2026-04-26 14:19 | 55.95039 | -3.36362 | 115 ft | 0 kts | 150° |
| 2026-04-26 14:22 | 55.95035 | -3.36360 | 114 ft | 1 kts | 174° |
| 2026-04-26 14:22 | 55.95022 | -3.36377 | 116 ft | 4 kts | 238° |
| 2026-04-26 14:22 | 55.95003 | -3.36429 | 115 ft | 6 kts | 237° |
| 2026-04-26 14:23 | 55.94980 | -3.36498 | 116 ft | 7 kts | 240° |
| 2026-04-26 14:23 | 55.94956 | -3.36572 | 116 ft | 7 kts | 239° |
| 2026-04-26 14:23 | 55.94930 | -3.36649 | 115 ft | 7 kts | 239° |
| 2026-04-26 14:23 | 55.94903 | -3.36727 | 115 ft | 7 kts | 239° |
| 2026-04-26 14:24 | 55.94899 | -3.36798 | 116 ft | 5 kts | 318° |
| 2026-04-26 14:24 | 55.94929 | -3.36865 | 116 ft | 8 kts | 278° |
| 2026-04-26 14:24 | 55.94904 | -3.36962 | 115 ft | 10 kts | 239° |
| 2026-04-26 14:24 | 55.94866 | -3.37075 | 116 ft | 11 kts | 239° |
| 2026-04-26 14:25 | 55.94818 | -3.37217 | 116 ft | 15 kts | 239° |
| 2026-04-26 14:25 | 55.94761 | -3.37385 | 115 ft | 16 kts | 239° |
| 2026-04-26 14:25 | 55.94706 | -3.37547 | 116 ft | 15 kts | 239° |
| 2026-04-26 14:25 | 55.94652 | -3.37705 | 116 ft | 15 kts | 239° |
| 2026-04-26 14:26 | 55.94599 | -3.37861 | 115 ft | 15 kts | 239° |
| 2026-04-26 14:26 | 55.94547 | -3.38016 | 116 ft | 14 kts | 239° |
| 2026-04-26 14:26 | 55.94495 | -3.38170 | 115 ft | 14 kts | 239° |
| 2026-04-26 14:26 | 55.94443 | -3.38323 | 113 ft | 14 kts | 239° |
| 2026-04-26 14:27 | 55.94391 | -3.38475 | 116 ft | 14 kts | 238° |
| 2026-04-26 14:27 | 55.94340 | -3.38625 | 113 ft | 14 kts | 238° |
| 2026-04-26 14:27 | 55.94289 | -3.38775 | 116 ft | 14 kts | 241° |
| 2026-04-26 14:27 | 55.94320 | -3.38904 | 116 ft | 13 kts | 328° |
| 2026-04-26 14:28 | 55.94401 | -3.38970 | 114 ft | 13 kts | 13° |
| 2026-04-26 14:28 | 55.94455 | -3.38854 | 112 ft | 13 kts | 59° |
| 2026-04-26 14:28 | 55.94580 | -3.38485 | 113 ft | 63 kts | 59° |
| 2026-04-26 14:28 | 55.94920 | -3.37486 | 111 ft | 127 kts | 58° |
| 2026-04-26 14:29 | 55.95472 | -3.35876 | 364 ft | 168 kts | 60° |
| 2026-04-26 14:29 | 55.96065 | -3.34028 | 1177 ft | 176 kts | 60° |
| 2026-04-26 14:29 | 55.96686 | -3.32051 | 1924 ft | 188 kts | 59° |
| 2026-04-26 14:29 | 55.97626 | -3.30256 | 2388 ft | 213 kts | 25° |
| 2026-04-26 14:30 | 55.99012 | -3.29172 | 3008 ft | 227 kts | 29° |
| 2026-04-26 14:30 | 56.00335 | -3.27411 | 3634 ft | 246 kts | 39° |
| 2026-04-26 14:30 | 56.01666 | -3.25287 | 4209 ft | 267 kts | 42° |
| 2026-04-26 14:30 | 56.03040 | -3.22916 | 5036 ft | 275 kts | 46° |
| 2026-04-26 14:31 | 56.04179 | -3.20121 | 5805 ft | 286 kts | 65° |
| 2026-04-26 14:31 | 56.04595 | -3.16686 | 6120 ft | 284 kts | 91° |
| 2026-04-26 14:31 | 56.04369 | -3.13190 | 6275 ft | 284 kts | 104° |
| 2026-04-26 14:31 | 56.03686 | -3.09903 | 6268 ft | 280 kts | 121° |
| 2026-04-26 14:32 | 56.02553 | -3.07125 | 6269 ft | 277 kts | 134° |
| 2026-04-26 14:32 | 56.01193 | -3.04722 | 6264 ft | 276 kts | 140° |
| 2026-04-26 14:32 | 55.99735 | -3.02498 | 6265 ft | 275 kts | 144° |
| 2026-04-26 14:32 | 55.98141 | -3.00645 | 6264 ft | 273 kts | 156° |
| 2026-04-26 14:33 | 55.96341 | -2.99667 | 6263 ft | 269 kts | 177° |
| 2026-04-26 14:33 | 55.94500 | -3.00002 | 6269 ft | 266 kts | 198° |
| 2026-04-26 14:33 | 55.92765 | -3.01165 | 6268 ft | 266 kts | 205° |
| 2026-04-26 14:33 | 55.91097 | -3.02533 | 6255 ft | 263 kts | 206° |
| 2026-04-26 14:34 | 55.89422 | -3.03899 | 6269 ft | 265 kts | 206° |
| 2026-04-26 14:34 | 55.87737 | -3.05231 | 6229 ft | 265 kts | 201° |
| 2026-04-26 14:34 | 55.85861 | -3.05531 | 6426 ft | 279 kts | 175° |
| 2026-04-26 14:34 | 55.83984 | -3.05089 | 7620 ft | 270 kts | 175° |
| 2026-04-26 14:35 | 55.82110 | -3.04717 | 8631 ft | 273 kts | 178° |
| 2026-04-26 14:35 | 55.80212 | -3.04426 | 9641 ft | 274 kts | 179° |
| 2026-04-26 14:35 | 55.78299 | -3.04165 | 10574 ft | 278 kts | 179° |
| 2026-04-26 14:35 | 55.76333 | -3.03900 | 11233 ft | 291 kts | 179° |
| 2026-04-26 14:36 | 55.74261 | -3.03619 | 11857 ft | 304 kts | 179° |
| 2026-04-26 14:36 | 55.72128 | -3.03319 | 12700 ft | 310 kts | 179° |
| 2026-04-26 14:36 | 55.69955 | -3.03009 | 13554 ft | 317 kts | 179° |
| 2026-04-26 14:36 | 55.67739 | -3.02702 | 14368 ft | 322 kts | 179° |
| 2026-04-26 14:37 | 55.65486 | -3.02385 | 15165 ft | 327 kts | 179° |
| 2026-04-26 14:37 | 55.63200 | -3.02064 | 15979 ft | 330 kts | 179° |
| 2026-04-26 14:37 | 55.60892 | -3.01743 | 16729 ft | 336 kts | 179° |
| 2026-04-26 14:37 | 55.58552 | -3.01422 | 17519 ft | 340 kts | 179° |
| 2026-04-26 14:38 | 55.56168 | -3.01089 | 18327 ft | 345 kts | 179° |
| 2026-04-26 14:38 | 55.53765 | -3.00749 | 19021 ft | 349 kts | 179° |
| 2026-04-26 14:38 | 55.51334 | -3.00403 | 19742 ft | 352 kts | 179° |
| 2026-04-26 14:38 | 55.48877 | -2.99897 | 20383 ft | 359 kts | 172° |
| 2026-04-26 14:39 | 55.46516 | -2.98466 | 20960 ft | 373 kts | 153° |
| 2026-04-26 14:39 | 55.44533 | -2.95459 | 21711 ft | 380 kts | 130° |
| 2026-04-26 14:39 | 55.43136 | -2.91498 | 22495 ft | 385 kts | 119° |
| 2026-04-26 14:39 | 55.41968 | -2.87194 | 23006 ft | 393 kts | 118° |
| 2026-04-26 14:40 | 55.40740 | -2.82870 | 23654 ft | 396 kts | 120° |
| 2026-04-26 14:40 | 55.39420 | -2.78627 | 24207 ft | 399 kts | 122° |
| 2026-04-26 14:40 | 55.38023 | -2.74345 | 24710 ft | 403 kts | 123° |
| 2026-04-26 14:40 | 55.36620 | -2.70080 | 25250 ft | 406 kts | 123° |
| 2026-04-26 14:41 | 55.35198 | -2.65727 | 25748 ft | 411 kts | 123° |
| 2026-04-26 14:41 | 55.33778 | -2.61338 | 26269 ft | 414 kts | 123° |
| 2026-04-26 14:41 | 55.32375 | -2.56973 | 26803 ft | 416 kts | 123° |
| 2026-04-26 14:41 | 55.30949 | -2.52543 | 27366 ft | 418 kts | 123° |
| 2026-04-26 14:42 | 55.29506 | -2.48081 | 27848 ft | 422 kts | 124° |
| 2026-04-26 14:42 | 55.27920 | -2.43735 | 28325 ft | 422 kts | 131° |
| 2026-04-26 14:42 | 55.25940 | -2.39958 | 28724 ft | 421 kts | 143° |
| 2026-04-26 14:42 | 55.23609 | -2.36831 | 29030 ft | 425 kts | 150° |
| 2026-04-26 14:43 | 55.21107 | -2.33918 | 29232 ft | 434 kts | 152° |
| 2026-04-26 14:43 | 55.18591 | -2.30944 | 29716 ft | 438 kts | 150° |
| 2026-04-26 14:43 | 55.16097 | -2.27814 | 30250 ft | 442 kts | 148° |
| 2026-04-26 14:43 | 55.13628 | -2.24591 | 30716 ft | 444 kts | 148° |
| 2026-04-26 14:44 | 55.11155 | -2.21325 | 31191 ft | 445 kts | 148° |
| 2026-04-26 14:44 | 55.08678 | -2.18074 | 31677 ft | 446 kts | 149° |
| 2026-04-26 14:44 | 55.06188 | -2.14840 | 32158 ft | 447 kts | 149° |
| 2026-04-26 14:44 | 55.03683 | -2.11609 | 32627 ft | 447 kts | 149° |
| 2026-04-26 14:45 | 55.01182 | -2.08387 | 33104 ft | 448 kts | 150° |
| 2026-04-26 14:45 | 54.99517 | -2.06240 | 33412 ft | 448 kts | 150° |
| 2026-04-26 14:45 | 54.96198 | -2.01958 | 34039 ft | 448 kts | 150° |
| 2026-04-26 14:45 | 54.93699 | -1.98734 | 34436 ft | 449 kts | 150° |
| 2026-04-26 14:46 | 54.91183 | -1.95491 | 34809 ft | 449 kts | 150° |
| 2026-04-26 14:46 | 54.88665 | -1.92250 | 35042 ft | 448 kts | 149° |
| 2026-04-26 14:46 | 54.86168 | -1.89035 | 35219 ft | 447 kts | 149° |
| 2026-04-26 14:47 | 54.81140 | -1.82578 | 35281 ft | 457 kts | 149° |
| 2026-04-26 14:47 | 54.75965 | -1.75940 | 35268 ft | 465 kts | 149° |
| 2026-04-26 14:48 | 54.70794 | -1.69286 | 35280 ft | 461 kts | 149° |
| 2026-04-26 14:48 | 54.65639 | -1.62681 | 35286 ft | 461 kts | 149° |
| 2026-04-26 14:49 | 54.60481 | -1.56091 | 35292 ft | 462 kts | 149° |
| 2026-04-26 14:49 | 54.55344 | -1.49530 | 35292 ft | 463 kts | 149° |
| 2026-04-26 14:50 | 54.50168 | -1.42923 | 35293 ft | 462 kts | 148° |
| 2026-04-26 14:50 | 54.44998 | -1.36333 | 35294 ft | 462 kts | 148° |
| 2026-04-26 14:51 | 54.39843 | -1.29774 | 35291 ft | 462 kts | 148° |
| 2026-04-26 14:51 | 54.34660 | -1.23184 | 35295 ft | 462 kts | 148° |
| 2026-04-26 14:52 | 54.29515 | -1.16649 | 35297 ft | 463 kts | 148° |
| 2026-04-26 14:52 | 54.24337 | -1.10088 | 35294 ft | 463 kts | 148° |
| 2026-04-26 14:53 | 54.19151 | -1.03526 | 35284 ft | 463 kts | 148° |
| 2026-04-26 14:53 | 54.13985 | -0.96985 | 35292 ft | 462 kts | 148° |
| 2026-04-26 14:54 | 54.08824 | -0.90470 | 35283 ft | 462 kts | 148° |
| 2026-04-26 14:54 | 54.03644 | -0.83966 | 35283 ft | 462 kts | 149° |
| 2026-04-26 14:55 | 53.98385 | -0.77686 | 35285 ft | 461 kts | 150° |
| 2026-04-26 14:55 | 53.93077 | -0.71541 | 35287 ft | 461 kts | 150° |
| 2026-04-26 14:56 | 53.87819 | -0.65417 | 35291 ft | 461 kts | 150° |
| 2026-04-26 14:56 | 53.82529 | -0.59232 | 35296 ft | 462 kts | 150° |
| 2026-04-26 14:57 | 53.77234 | -0.53057 | 35291 ft | 461 kts | 150° |
| 2026-04-26 14:57 | 53.71940 | -0.46899 | 35292 ft | 462 kts | 150° |
| 2026-04-26 14:58 | 53.66642 | -0.40770 | 35294 ft | 461 kts | 150° |
| 2026-04-26 14:58 | 53.61373 | -0.34710 | 35291 ft | 461 kts | 150° |
| 2026-04-26 14:59 | 53.56271 | -0.28145 | 35285 ft | 467 kts | 138° |
| 2026-04-26 14:59 | 53.52225 | -0.19522 | 35298 ft | 472 kts | 126° |
| 2026-04-26 15:00 | 53.48500 | -0.10437 | 35294 ft | 471 kts | 129° |
| 2026-04-26 15:00 | 53.44548 | -0.01663 | 35302 ft | 470 kts | 130° |
| 2026-04-26 15:01 | 53.40592 | 0.06977 | 35308 ft | 470 kts | 130° |
| 2026-04-26 15:01 | 53.36642 | 0.15748 | 35307 ft | 470 kts | 129° |
| 2026-04-26 15:02 | 53.32711 | 0.24482 | 35310 ft | 470 kts | 129° |
| 2026-04-26 15:02 | 53.28762 | 0.33218 | 35318 ft | 471 kts | 129° |
| 2026-04-26 15:03 | 53.24813 | 0.41937 | 35322 ft | 471 kts | 129° |
| 2026-04-26 15:03 | 53.20827 | 0.50587 | 35316 ft | 469 kts | 130° |
| 2026-04-26 15:04 | 53.16818 | 0.59185 | 35318 ft | 470 kts | 130° |
| 2026-04-26 15:04 | 53.12802 | 0.67816 | 35317 ft | 470 kts | 130° |
| 2026-04-26 15:05 | 53.08825 | 0.76369 | 35313 ft | 470 kts | 130° |
| 2026-04-26 15:05 | 53.04823 | 0.84957 | 35315 ft | 469 kts | 130° |
| 2026-04-26 15:06 | 53.00829 | 0.93522 | 35317 ft | 469 kts | 129° |
| 2026-04-26 15:06 | 52.97343 | 1.02700 | 35311 ft | 472 kts | 111° |
| 2026-04-26 15:06 | 52.96456 | 1.07941 | 35328 ft | 472 kts | 99° |
| 2026-04-26 15:07 | 52.95617 | 1.18776 | 35321 ft | 474 kts | 98° |
| 2026-04-26 15:07 | 52.94420 | 1.29519 | 35327 ft | 473 kts | 102° |
| 2026-04-26 15:08 | 52.93030 | 1.40111 | 35329 ft | 473 kts | 102° |
| 2026-04-26 15:08 | 52.91714 | 1.50795 | 35335 ft | 474 kts | 101° |
| 2026-04-26 15:09 | 52.90427 | 1.61516 | 35333 ft | 474 kts | 101° |
| 2026-04-26 15:09 | 52.89127 | 1.72204 | 35337 ft | 473 kts | 101° |
| 2026-04-26 15:10 | 52.88252 | 1.79371 | 35342 ft | 473 kts | 101° |
| 2026-04-26 15:10 | 52.86741 | 1.91769 | 35344 ft | 473 kts | 101° |
| 2026-04-26 15:11 | 52.85435 | 2.02472 | 35344 ft | 474 kts | 101° |
| 2026-04-26 15:11 | 52.84134 | 2.13153 | 35347 ft | 474 kts | 101° |
| 2026-04-26 15:12 | 52.82829 | 2.23842 | 35347 ft | 474 kts | 101° |
| 2026-04-26 15:12 | 52.81531 | 2.34461 | 35347 ft | 474 kts | 101° |
| 2026-04-26 15:13 | 52.80219 | 2.45219 | 35347 ft | 474 kts | 101° |
| 2026-04-26 15:13 | 52.78886 | 2.55875 | 35344 ft | 474 kts | 101° |
| 2026-04-26 15:14 | 52.77511 | 2.66473 | 35348 ft | 475 kts | 101° |
| 2026-04-26 15:14 | 52.76126 | 2.77131 | 35347 ft | 474 kts | 101° |
| 2026-04-26 15:15 | 52.74740 | 2.87773 | 35347 ft | 474 kts | 101° |
| 2026-04-26 15:15 | 52.73358 | 2.98394 | 35346 ft | 474 kts | 101° |
| 2026-04-26 15:16 | 52.72208 | 3.09129 | 35348 ft | 474 kts | 98° |
| 2026-04-26 15:16 | 52.71230 | 3.19871 | 35347 ft | 474 kts | 97° |
| 2026-04-26 15:17 | 52.70388 | 3.28806 | 35349 ft | 474 kts | 98° |
| 2026-04-26 15:17 | 52.69163 | 3.41374 | 35346 ft | 474 kts | 98° |
| 2026-04-26 15:18 | 52.68129 | 3.52042 | 35348 ft | 474 kts | 98° |
| 2026-04-26 15:18 | 52.67095 | 3.62783 | 35349 ft | 474 kts | 98° |
| 2026-04-26 15:19 | 52.66059 | 3.73511 | 35343 ft | 474 kts | 98° |
| 2026-04-26 15:19 | 52.65021 | 3.84242 | 35346 ft | 474 kts | 97° |
| 2026-04-26 15:20 | 52.63982 | 3.94985 | 35344 ft | 474 kts | 97° |
| 2026-04-26 15:20 | 52.62954 | 4.05627 | 35337 ft | 474 kts | 97° |
| 2026-04-26 15:21 | 52.61920 | 4.16325 | 35333 ft | 474 kts | 98° |
| 2026-04-26 15:21 | 52.60682 | 4.26992 | 35331 ft | 474 kts | 101° |
| 2026-04-26 15:22 | 52.59151 | 4.37543 | 35324 ft | 474 kts | 102° |
| 2026-04-26 15:22 | 52.57619 | 4.48110 | 35325 ft | 475 kts | 102° |
| 2026-04-26 15:23 | 52.56155 | 4.58595 | 35331 ft | 473 kts | 101° |
| 2026-04-26 15:23 | 52.54672 | 4.69160 | 35312 ft | 477 kts | 102° |
| 2026-04-26 15:24 | 52.53182 | 4.79714 | 35315 ft | 473 kts | 102° |
| 2026-04-26 15:24 | 52.51701 | 4.90228 | 35319 ft | 473 kts | 101° |
| 2026-04-26 15:25 | 52.50465 | 4.98992 | 35320 ft | 473 kts | 101° |
| 2026-04-26 15:25 | 52.48730 | 5.11293 | 35323 ft | 474 kts | 101° |
| 2026-04-26 15:26 | 52.47246 | 5.21821 | 35320 ft | 473 kts | 101° |
| 2026-04-26 15:26 | 52.45759 | 5.32343 | 35321 ft | 473 kts | 101° |
| 2026-04-26 15:27 | 52.44276 | 5.42833 | 35322 ft | 472 kts | 101° |
| 2026-04-26 15:27 | 52.42796 | 5.53336 | 35320 ft | 472 kts | 101° |
| 2026-04-26 15:28 | 52.41324 | 5.63766 | 35322 ft | 472 kts | 101° |
| 2026-04-26 15:28 | 52.39841 | 5.74236 | 35320 ft | 471 kts | 101° |
| 2026-04-26 15:29 | 52.38365 | 5.84691 | 35316 ft | 472 kts | 101° |
| 2026-04-26 15:30 | 52.35410 | 6.05591 | 35305 ft | 470 kts | 101° |
| 2026-04-26 15:30 | 52.33934 | 6.16022 | 35303 ft | 471 kts | 101° |
| 2026-04-26 15:31 | 52.31717 | 6.31687 | 35299 ft | 470 kts | 101° |
| 2026-04-26 15:32 | 52.29753 | 6.45546 | 35301 ft | 470 kts | 101° |
| 2026-04-26 15:32 | 52.28041 | 6.57623 | 35295 ft | 470 kts | 101° |
| 2026-04-26 15:33 | 52.26569 | 6.68019 | 35295 ft | 469 kts | 101° |
| 2026-04-26 15:33 | 52.25101 | 6.78374 | 35300 ft | 469 kts | 101° |
| 2026-04-26 15:34 | 52.23625 | 6.88778 | 35295 ft | 469 kts | 101° |
| 2026-04-26 15:34 | 52.22157 | 6.99121 | 35300 ft | 468 kts | 101° |
| 2026-04-26 15:35 | 52.20557 | 7.09342 | 35297 ft | 469 kts | 107° |
| 2026-04-26 15:35 | 52.18339 | 7.19432 | 35300 ft | 469 kts | 109° |
| 2026-04-26 15:36 | 52.16204 | 7.29458 | 35298 ft | 468 kts | 107° |
| 2026-04-26 15:36 | 52.14203 | 7.39470 | 35295 ft | 468 kts | 107° |
| 2026-04-26 15:37 | 52.12168 | 7.49550 | 35296 ft | 468 kts | 107° |
| 2026-04-26 15:37 | 52.10116 | 7.59593 | 35295 ft | 467 kts | 107° |
| 2026-04-26 15:38 | 52.08071 | 7.69624 | 35293 ft | 467 kts | 107° |
| 2026-04-26 15:38 | 52.06035 | 7.79633 | 35291 ft | 467 kts | 107° |
| 2026-04-26 15:39 | 52.03990 | 7.89670 | 35296 ft | 466 kts | 107° |
| 2026-04-26 15:39 | 52.02295 | 7.97978 | 35302 ft | 466 kts | 107° |
| 2026-04-26 15:40 | 51.99924 | 8.09597 | 35302 ft | 466 kts | 108° |
| 2026-04-26 15:40 | 51.97886 | 8.19579 | 35308 ft | 466 kts | 108° |
| 2026-04-26 15:41 | 51.95851 | 8.29546 | 35295 ft | 465 kts | 108° |
| 2026-04-26 15:41 | 51.93821 | 8.39491 | 35308 ft | 464 kts | 108° |
| 2026-04-26 15:42 | 51.91794 | 8.49427 | 35301 ft | 464 kts | 108° |
| 2026-04-26 15:42 | 51.89754 | 8.59372 | 35292 ft | 465 kts | 108° |
| 2026-04-26 15:43 | 51.87722 | 8.69308 | 35303 ft | 465 kts | 108° |
| 2026-04-26 15:44 | 51.84685 | 8.84154 | 35293 ft | 465 kts | 108° |
| 2026-04-26 15:44 | 51.81634 | 8.99038 | 35291 ft | 465 kts | 108° |
| 2026-04-26 15:45 | 51.78576 | 9.13974 | 35287 ft | 465 kts | 108° |
| 2026-04-26 15:46 | 51.75539 | 9.28777 | 35289 ft | 465 kts | 108° |
| 2026-04-26 15:46 | 51.74175 | 9.35425 | 35293 ft | 465 kts | 108° |
| 2026-04-26 15:47 | 51.70456 | 9.53538 | 35294 ft | 465 kts | 108° |
| 2026-04-26 15:48 | 51.68420 | 9.63457 | 35295 ft | 465 kts | 108° |
| 2026-04-26 15:48 | 51.66391 | 9.73325 | 35299 ft | 464 kts | 108° |
| 2026-04-26 15:49 | 51.64353 | 9.83212 | 35299 ft | 465 kts | 108° |
| 2026-04-26 15:49 | 51.62323 | 9.93090 | 35293 ft | 464 kts | 108° |
| 2026-04-26 15:50 | 51.60305 | 10.02905 | 35296 ft | 464 kts | 108° |
| 2026-04-26 15:50 | 51.58267 | 10.12797 | 35292 ft | 464 kts | 108° |
| 2026-04-26 15:51 | 51.56237 | 10.22643 | 35293 ft | 464 kts | 108° |
| 2026-04-26 15:51 | 51.54210 | 10.32477 | 35293 ft | 464 kts | 108° |
| 2026-04-26 15:52 | 51.52180 | 10.42320 | 35290 ft | 463 kts | 108° |
| 2026-04-26 15:52 | 51.50164 | 10.52091 | 35289 ft | 464 kts | 108° |
| 2026-04-26 15:53 | 51.48139 | 10.61907 | 35288 ft | 463 kts | 108° |
| 2026-04-26 15:53 | 51.46440 | 10.70144 | 35287 ft | 463 kts | 108° |
| 2026-04-26 15:54 | 51.44418 | 10.79932 | 35288 ft | 463 kts | 108° |
| 2026-04-26 15:54 | 51.42388 | 10.89759 | 35290 ft | 464 kts | 108° |
| 2026-04-26 15:55 | 51.40378 | 10.99478 | 35291 ft | 463 kts | 108° |
| 2026-04-26 15:55 | 51.38347 | 11.09291 | 35291 ft | 463 kts | 108° |
| 2026-04-26 15:56 | 51.36319 | 11.19088 | 35297 ft | 463 kts | 108° |
| 2026-04-26 15:56 | 51.34295 | 11.28878 | 35298 ft | 463 kts | 108° |
| 2026-04-26 15:57 | 51.32266 | 11.38676 | 35300 ft | 463 kts | 108° |
| 2026-04-26 15:57 | 51.30250 | 11.48399 | 35300 ft | 464 kts | 108° |
| 2026-04-26 15:58 | 51.28208 | 11.58254 | 35305 ft | 464 kts | 108° |
| 2026-04-26 15:58 | 51.26189 | 11.67989 | 35306 ft | 465 kts | 108° |
| 2026-04-26 15:59 | 51.24154 | 11.77794 | 35305 ft | 465 kts | 108° |
| 2026-04-26 15:59 | 51.22121 | 11.87592 | 35306 ft | 465 kts | 108° |
| 2026-04-26 16:00 | 51.20090 | 11.97384 | 35305 ft | 465 kts | 108° |
| 2026-04-26 16:00 | 51.18053 | 12.07183 | 35306 ft | 465 kts | 108° |
| 2026-04-26 16:01 | 51.16026 | 12.16915 | 35304 ft | 466 kts | 108° |
| 2026-04-26 16:01 | 51.13990 | 12.26725 | 35298 ft | 466 kts | 108° |
| 2026-04-26 16:02 | 51.11949 | 12.36535 | 35300 ft | 467 kts | 108° |
| 2026-04-26 16:02 | 51.09911 | 12.46348 | 35296 ft | 468 kts | 108° |
| 2026-04-26 16:03 | 51.07859 | 12.56187 | 35296 ft | 468 kts | 108° |
| 2026-04-26 16:03 | 51.05809 | 12.66022 | 35293 ft | 469 kts | 108° |
| 2026-04-26 16:04 | 51.03762 | 12.75843 | 35295 ft | 469 kts | 109° |
| 2026-04-26 16:04 | 51.01705 | 12.85699 | 35294 ft | 470 kts | 109° |
| 2026-04-26 16:05 | 50.99660 | 12.95491 | 35296 ft | 470 kts | 108° |
| 2026-04-26 16:05 | 50.97603 | 13.05363 | 35293 ft | 471 kts | 108° |
| 2026-04-26 16:06 | 50.95541 | 13.15234 | 35291 ft | 471 kts | 109° |
| 2026-04-26 16:06 | 50.93478 | 13.25107 | 35290 ft | 472 kts | 109° |
| 2026-04-26 16:07 | 50.91414 | 13.34985 | 35289 ft | 472 kts | 108° |
| 2026-04-26 16:07 | 50.89352 | 13.44855 | 35285 ft | 473 kts | 108° |
| 2026-04-26 16:08 | 50.87279 | 13.54772 | 35286 ft | 474 kts | 109° |
| 2026-04-26 16:08 | 50.85222 | 13.64602 | 35287 ft | 473 kts | 108° |
| 2026-04-26 16:09 | 50.83149 | 13.74513 | 35282 ft | 475 kts | 108° |
| 2026-04-26 16:09 | 50.81097 | 13.84307 | 34626 ft | 463 kts | 109° |
| 2026-04-26 16:09 | 50.79962 | 13.89084 | 33668 ft | 466 kts | 114° |
| 2026-04-26 16:10 | 50.78550 | 13.93693 | 32854 ft | 464 kts | 120° |
| 2026-04-26 16:10 | 50.76950 | 13.98114 | 32004 ft | 464 kts | 122° |
| 2026-04-26 16:10 | 50.75275 | 14.02495 | 31019 ft | 467 kts | 122° |
| 2026-04-26 16:10 | 50.73613 | 14.06918 | 29980 ft | 471 kts | 121° |
| 2026-04-26 16:11 | 50.71986 | 14.11409 | 28963 ft | 471 kts | 120° |
| 2026-04-26 16:11 | 50.70391 | 14.15924 | 28005 ft | 470 kts | 120° |
| 2026-04-26 16:11 | 50.68843 | 14.20346 | 27343 ft | 462 kts | 120° |
| 2026-04-26 16:11 | 50.67276 | 14.24800 | 26664 ft | 455 kts | 120° |
| 2026-04-26 16:12 | 50.65736 | 14.29136 | 25905 ft | 451 kts | 120° |
| 2026-04-26 16:12 | 50.64228 | 14.33355 | 25246 ft | 446 kts | 120° |
| 2026-04-26 16:12 | 50.61213 | 14.41790 | 23891 ft | 436 kts | 120° |
| 2026-04-26 16:13 | 50.59633 | 14.45836 | 23117 ft | 431 kts | 126° |
| 2026-04-26 16:13 | 50.57630 | 14.49317 | 22265 ft | 427 kts | 142° |
| 2026-04-26 16:13 | 50.55071 | 14.51594 | 21502 ft | 418 kts | 163° |
| 2026-04-26 16:13 | 50.52319 | 14.52573 | 20914 ft | 406 kts | 176° |
| 2026-04-26 16:14 | 50.49549 | 14.53083 | 20204 ft | 401 kts | 176° |
| 2026-04-26 16:14 | 50.46773 | 14.53687 | 19450 ft | 401 kts | 174° |
| 2026-04-26 16:14 | 50.41319 | 14.55339 | 18072 ft | 396 kts | 171° |
| 2026-04-26 16:15 | 50.38640 | 14.56221 | 17424 ft | 390 kts | 171° |
| 2026-04-26 16:15 | 50.36006 | 14.57072 | 16748 ft | 386 kts | 171° |
| 2026-04-26 16:15 | 50.33385 | 14.57893 | 16079 ft | 382 kts | 171° |
| 2026-04-26 16:16 | 50.28214 | 14.59497 | 14808 ft | 374 kts | 171° |
| 2026-04-26 16:16 | 50.25677 | 14.60288 | 14208 ft | 370 kts | 171° |
| 2026-04-26 16:16 | 50.23166 | 14.61069 | 13547 ft | 367 kts | 171° |
| 2026-04-26 16:16 | 50.20676 | 14.61845 | 12908 ft | 362 kts | 171° |
| 2026-04-26 16:17 | 50.18245 | 14.62604 | 12663 ft | 347 kts | 171° |
| 2026-04-26 16:17 | 50.15924 | 14.63329 | 12469 ft | 332 kts | 171° |
| 2026-04-26 16:17 | 50.13697 | 14.64022 | 12193 ft | 322 kts | 171° |
| 2026-04-26 16:17 | 50.11520 | 14.64697 | 11822 ft | 313 kts | 171° |
| 2026-04-26 16:18 | 50.09394 | 14.65357 | 11241 ft | 310 kts | 171° |
| 2026-04-26 16:18 | 50.05233 | 14.66646 | 10141 ft | 304 kts | 171° |
| 2026-04-26 16:19 | 50.01169 | 14.68209 | 8971 ft | 298 kts | 164° |
| 2026-04-26 16:19 | 49.99193 | 14.69078 | 8518 ft | 291 kts | 168° |
| 2026-04-26 16:19 | 49.95968 | 14.69291 | 7662 ft | 276 kts | 202° |
| 2026-04-26 16:20 | 49.94071 | 14.66920 | 7080 ft | 259 kts | 240° |
| 2026-04-26 16:20 | 49.93037 | 14.61805 | 6540 ft | 250 kts | 281° |
| 2026-04-26 16:20 | 49.93678 | 14.59340 | 6303 ft | 247 kts | 306° |
| 2026-04-26 16:21 | 49.94794 | 14.57312 | 6044 ft | 249 kts | 313° |
| 2026-04-26 16:21 | 49.95920 | 14.55323 | 5696 ft | 248 kts | 309° |
| 2026-04-26 16:21 | 49.96958 | 14.53197 | 5349 ft | 245 kts | 307° |
| 2026-04-26 16:21 | 49.97934 | 14.51086 | 5030 ft | 236 kts | 307° |
| 2026-04-26 16:22 | 49.98893 | 14.49059 | 4700 ft | 229 kts | 308° |
| 2026-04-26 16:22 | 49.99854 | 14.47128 | 4413 ft | 222 kts | 309° |
| 2026-04-26 16:22 | 50.00774 | 14.45259 | 4121 ft | 214 kts | 308° |
| 2026-04-26 16:22 | 50.01640 | 14.43461 | 3818 ft | 198 kts | 308° |
| 2026-04-26 16:23 | 50.02423 | 14.41823 | 3589 ft | 183 kts | 309° |
| 2026-04-26 16:23 | 50.03180 | 14.40295 | 3328 ft | 173 kts | 309° |
| 2026-04-26 16:23 | 50.03863 | 14.38864 | 3102 ft | 155 kts | 308° |
| 2026-04-26 16:23 | 50.04519 | 14.37544 | 2791 ft | 163 kts | 309° |
| 2026-04-26 16:24 | 50.05144 | 14.36265 | 2745 ft | 137 kts | 308° |
| 2026-04-26 16:24 | 50.05680 | 14.35115 | 2525 ft | 128 kts | 308° |
| 2026-04-26 16:24 | 50.06200 | 14.33991 | 2332 ft | 129 kts | 307° |
| 2026-04-26 16:24 | 50.06753 | 14.32852 | 2235 ft | 134 kts | 310° |
| 2026-04-26 16:25 | 50.07334 | 14.31701 | 2017 ft | 134 kts | 308° |
| 2026-04-26 16:25 | 50.07856 | 14.30567 | 1722 ft | 129 kts | 308° |
| 2026-04-26 16:25 | 50.08441 | 14.29405 | 1475 ft | 139 kts | 308° |
| 2026-04-26 16:25 | 50.09022 | 14.28183 | 1285 ft | 140 kts | 309° |
| 2026-04-26 16:26 | 50.09578 | 14.27055 | 1208 ft | 122 kts | 309° |
| 2026-04-26 16:26 | 50.09890 | 14.26426 | 1201 ft | 91 kts | 306° |
| 2026-04-26 16:26 | 50.10233 | 14.25727 | 1188 ft | 27 kts | 329° |
| 2026-04-26 16:26 | 50.10388 | 14.25657 | 1184 ft | 18 kts | 0° |
| 2026-04-26 16:27 | 50.10477 | 14.25671 | 1178 ft | 12 kts | 6° |
| 2026-04-26 16:27 | 50.10549 | 14.25710 | 1177 ft | 11 kts | 26° |
| 2026-04-26 16:27 | 50.10606 | 14.25779 | 1175 ft | 10 kts | 42° |
| 2026-04-26 16:27 | 50.10660 | 14.25849 | 1172 ft | 10 kts | 36° |
| 2026-04-26 16:28 | 50.10712 | 14.25906 | 1172 ft | 9 kts | 34° |
| 2026-04-26 16:28 | 50.10761 | 14.25958 | 1173 ft | 8 kts | 34° |
| 2026-04-26 16:28 | 50.10809 | 14.26009 | 1170 ft | 8 kts | 34° |
| 2026-04-26 16:28 | 50.10856 | 14.26060 | 1172 ft | 8 kts | 34° |
| 2026-04-26 16:29 | 50.10904 | 14.26112 | 1170 ft | 9 kts | 35° |
| 2026-04-26 16:29 | 50.10956 | 14.26165 | 1168 ft | 9 kts | 33° |
| 2026-04-26 16:29 | 50.11007 | 14.26222 | 1166 ft | 9 kts | 35° |
| 2026-04-26 16:29 | 50.11061 | 14.26280 | 1168 ft | 10 kts | 35° |
| 2026-04-26 16:30 | 50.11083 | 14.26356 | 1169 ft | 6 kts | 97° |
| 2026-04-26 16:30 | 50.11077 | 14.26414 | 1168 ft | 6 kts | 99° |
| 2026-04-26 16:30 | 50.11070 | 14.26484 | 1170 ft | 7 kts | 99° |
| 2026-04-26 16:30 | 50.11074 | 14.26573 | 1173 ft | 8 kts | 71° |
| 2026-04-26 16:31 | 50.11066 | 14.26643 | 1174 ft | 5 kts | 140° |
| 2026-04-26 16:31 | 50.11030 | 14.26677 | 1174 ft | 7 kts | 148° |
| 2026-04-26 16:31 | 50.11014 | 14.26726 | 1174 ft | 6 kts | 74° |
| 2026-04-26 16:31 | 50.11028 | 14.26778 | 1173 ft | 1 kts | 66° |
| 2026-04-26 16:32 | 50.11029 | 14.26780 | 1170 ft | 0 kts | 66° |